sensor_id;sensor_type;location;lat;lon;timestamp;P1;durP1;ratioP1;P2;durP2;ratioP2
795;SDS011;381;48.770;9.188;2022-08-03T00:00:13;5.87;;;5.57;;
795;SDS011;381;48.770;9.188;2022-08-03T00:05:17;6.20;;;5.80;;
795;SDS011;381;48.770;9.188;2022-08-03T00:10:19;5.17;;;4.87;;
795;SDS011;381;48.770;9.188;2022-08-03T00:15:21;6.20;;;4.80;;
795;SDS011;381;48.770;9.188;2022-08-03T00:20:25;5.33;;;4.97;;
795;SDS011;381;48.770;9.188;2022-08-03T00:25:27;5.80;;;5.30;;
795;SDS011;381;48.770;9.188;2022-08-03T00:30:29;5.43;;;5.03;;
795;SDS011;381;48.770;9.188;2022-08-03T00:35:33;5.03;;;4.83;;
795;SDS011;381;48.770;9.188;2022-08-03T00:40:35;5.70;;;5.40;;
795;SDS011;381;48.770;9.188;2022-08-03T00:45:38;5.33;;;5.03;;
795;SDS011;381;48.770;9.188;2022-08-03T00:50:42;5.33;;;5.03;;
795;SDS011;381;48.770;9.188;2022-08-03T00:55:44;6.10;;;5.50;;
795;SDS011;381;48.770;9.188;2022-08-03T01:00:47;5.60;;;5.30;;
795;SDS011;381;48.770;9.188;2022-08-03T01:05:51;6.07;;;5.77;;
795;SDS011;381;48.770;9.188;2022-08-03T01:11:00;5.40;;;5.10;;
795;SDS011;381;48.770;9.188;2022-08-03T01:16:07;5.63;;;5.33;;
795;SDS011;381;48.770;9.188;2022-08-03T01:21:15;5.47;;;5.17;;
795;SDS011;381;48.770;9.188;2022-08-03T01:26:26;5.37;;;5.13;;
795;SDS011;381;48.770;9.188;2022-08-03T01:31:52;6.10;;;5.70;;
795;SDS011;381;48.770;9.188;2022-08-03T01:37:00;5.37;;;5.00;;
795;SDS011;381;48.770;9.188;2022-08-03T01:42:06;5.47;;;5.07;;
795;SDS011;381;48.770;9.188;2022-08-03T01:47:12;5.07;;;4.80;;
795;SDS011;381;48.770;9.188;2022-08-03T01:52:16;5.60;;;5.30;;
795;SDS011;381;48.770;9.188;2022-08-03T01:57:20;5.97;;;5.67;;
795;SDS011;381;48.770;9.188;2022-08-03T02:02:27;6.27;;;5.80;;
795;SDS011;381;48.770;9.188;2022-08-03T02:07:31;5.80;;;5.40;;
795;SDS011;381;48.770;9.188;2022-08-03T02:12:34;5.47;;;5.07;;
795;SDS011;381;48.770;9.188;2022-08-03T02:17:42;5.10;;;4.90;;
795;SDS011;381;48.770;9.188;2022-08-03T02:22:46;5.97;;;5.60;;
795;SDS011;381;48.770;9.188;2022-08-03T02:27:50;5.67;;;5.27;;
795;SDS011;381;48.770;9.188;2022-08-03T02:32:55;5.93;;;5.63;;
795;SDS011;381;48.770;9.188;2022-08-03T02:38:00;6.17;;;5.87;;
795;SDS011;381;48.770;9.188;2022-08-03T02:43:04;6.10;;;5.80;;
795;SDS011;381;48.770;9.188;2022-08-03T02:48:10;5.80;;;5.50;;
795;SDS011;381;48.770;9.188;2022-08-03T02:53:16;5.73;;;5.33;;
795;SDS011;381;48.770;9.188;2022-08-03T02:58:20;5.20;;;4.90;;
795;SDS011;381;48.770;9.188;2022-08-03T03:03:25;5.97;;;5.53;;
795;SDS011;381;48.770;9.188;2022-08-03T03:08:28;6.87;;;6.13;;
795;SDS011;381;48.770;9.188;2022-08-03T03:13:30;5.60;;;5.30;;
795;SDS011;381;48.770;9.188;2022-08-03T03:18:34;7.17;;;6.73;;
795;SDS011;381;48.770;9.188;2022-08-03T03:23:38;7.13;;;6.70;;
795;SDS011;381;48.770;9.188;2022-08-03T03:28:42;6.50;;;6.10;;
795;SDS011;381;48.770;9.188;2022-08-03T03:33:46;6.30;;;6.00;;
795;SDS011;381;48.770;9.188;2022-08-03T03:38:48;8.00;;;7.43;;
795;SDS011;381;48.770;9.188;2022-08-03T03:43:50;6.10;;;5.60;;
795;SDS011;381;48.770;9.188;2022-08-03T03:48:54;7.03;;;6.63;;
795;SDS011;381;48.770;9.188;2022-08-03T03:53:56;7.37;;;6.97;;
795;SDS011;381;48.770;9.188;2022-08-03T03:58:59;7.27;;;6.87;;
795;SDS011;381;48.770;9.188;2022-08-03T04:04:02;7.67;;;7.27;;
795;SDS011;381;48.770;9.188;2022-08-03T04:09:18;8.87;;;8.37;;
795;SDS011;381;48.770;9.188;2022-08-03T04:14:38;7.70;;;7.23;;
795;SDS011;381;48.770;9.188;2022-08-03T04:19:44;8.00;;;7.50;;
795;SDS011;381;48.770;9.188;2022-08-03T04:24:51;8.27;;;7.77;;
795;SDS011;381;48.770;9.188;2022-08-03T04:29:57;8.20;;;7.70;;
795;SDS011;381;48.770;9.188;2022-08-03T04:35:04;9.03;;;8.43;;
795;SDS011;381;48.770;9.188;2022-08-03T04:40:09;8.03;;;7.53;;
795;SDS011;381;48.770;9.188;2022-08-03T04:45:15;8.90;;;8.40;;
795;SDS011;381;48.770;9.188;2022-08-03T04:50:19;8.30;;;7.70;;
795;SDS011;381;48.770;9.188;2022-08-03T04:55:37;8.30;;;7.70;;
795;SDS011;381;48.770;9.188;2022-08-03T05:00:39;8.30;;;7.80;;
795;SDS011;381;48.770;9.188;2022-08-03T05:05:43;8.17;;;7.57;;
795;SDS011;381;48.770;9.188;2022-08-03T05:10:45;9.00;;;8.20;;
795;SDS011;381;48.770;9.188;2022-08-03T05:15:47;8.60;;;7.93;;
795;SDS011;381;48.770;9.188;2022-08-03T05:20:51;7.90;;;7.50;;
795;SDS011;381;48.770;9.188;2022-08-03T05:25:53;8.17;;;7.47;;
795;SDS011;381;48.770;9.188;2022-08-03T05:30:55;8.77;;;8.27;;
795;SDS011;381;48.770;9.188;2022-08-03T05:35:59;9.03;;;6.80;;
795;SDS011;381;48.770;9.188;2022-08-03T05:41:01;7.73;;;7.33;;
795;SDS011;381;48.770;9.188;2022-08-03T05:46:04;7.70;;;7.30;;
795;SDS011;381;48.770;9.188;2022-08-03T05:51:07;7.57;;;6.97;;
795;SDS011;381;48.770;9.188;2022-08-03T05:56:11;8.33;;;7.80;;
795;SDS011;381;48.770;9.188;2022-08-03T06:01:13;8.67;;;8.07;;
795;SDS011;381;48.770;9.188;2022-08-03T06:06:17;8.40;;;7.80;;
795;SDS011;381;48.770;9.188;2022-08-03T06:11:19;8.20;;;7.60;;
795;SDS011;381;48.770;9.188;2022-08-03T06:16:22;11.80;;;10.90;;
795;SDS011;381;48.770;9.188;2022-08-03T06:21:26;8.00;;;7.60;;
795;SDS011;381;48.770;9.188;2022-08-03T06:26:28;8.20;;;7.60;;
795;SDS011;381;48.770;9.188;2022-08-03T06:31:30;7.03;;;6.60;;
795;SDS011;381;48.770;9.188;2022-08-03T06:36:33;7.80;;;7.20;;
795;SDS011;381;48.770;9.188;2022-08-03T06:41:36;8.50;;;7.90;;
795;SDS011;381;48.770;9.188;2022-08-03T06:46:41;8.03;;;7.53;;
795;SDS011;381;48.770;9.188;2022-08-03T06:51:44;8.10;;;7.30;;
795;SDS011;381;48.770;9.188;2022-08-03T06:56:47;8.10;;;7.40;;
795;SDS011;381;48.770;9.188;2022-08-03T07:01:49;7.37;;;6.97;;
795;SDS011;381;48.770;9.188;2022-08-03T07:06:52;7.90;;;7.40;;
795;SDS011;381;48.770;9.188;2022-08-03T07:11:55;7.50;;;7.10;;
795;SDS011;381;48.770;9.188;2022-08-03T07:16:58;6.67;;;6.27;;
795;SDS011;381;48.770;9.188;2022-08-03T07:22:01;8.63;;;7.90;;
795;SDS011;381;48.770;9.188;2022-08-03T07:27:04;9.57;;;8.67;;
795;SDS011;381;48.770;9.188;2022-08-03T07:32:06;8.70;;;8.20;;
795;SDS011;381;48.770;9.188;2022-08-03T07:37:09;8.27;;;7.57;;
795;SDS011;381;48.770;9.188;2022-08-03T07:42:11;8.67;;;7.97;;
795;SDS011;381;48.770;9.188;2022-08-03T07:47:16;7.90;;;7.40;;
795;SDS011;381;48.770;9.188;2022-08-03T07:52:20;7.83;;;7.23;;
795;SDS011;381;48.770;9.188;2022-08-03T07:57:58;9.33;;;8.63;;
795;SDS011;381;48.770;9.188;2022-08-03T08:03:01;8.43;;;7.83;;
795;SDS011;381;48.770;9.188;2022-08-03T08:08:05;8.23;;;7.70;;
795;SDS011;381;48.770;9.188;2022-08-03T08:13:09;6.50;;;6.00;;
795;SDS011;381;48.770;9.188;2022-08-03T08:18:11;7.33;;;6.93;;
795;SDS011;381;48.770;9.188;2022-08-03T08:23:14;6.70;;;6.30;;
795;SDS011;381;48.770;9.188;2022-08-03T08:28:22;10.33;;;7.47;;
795;SDS011;381;48.770;9.188;2022-08-03T08:33:24;9.43;;;6.90;;
795;SDS011;381;48.770;9.188;2022-08-03T08:38:27;6.87;;;6.17;;
795;SDS011;381;48.770;9.188;2022-08-03T08:43:30;12.10;;;6.10;;
795;SDS011;381;48.770;9.188;2022-08-03T08:48:32;5.70;;;5.40;;
795;SDS011;381;48.770;9.188;2022-08-03T08:53:37;5.00;;;4.80;;
795;SDS011;381;48.770;9.188;2022-08-03T08:58:45;5.63;;;5.33;;
795;SDS011;381;48.770;9.188;2022-08-03T09:03:49;5.23;;;5.03;;
795;SDS011;381;48.770;9.188;2022-08-03T09:08:54;4.40;;;4.20;;
795;SDS011;381;48.770;9.188;2022-08-03T09:13:57;4.60;;;4.40;;
795;SDS011;381;48.770;9.188;2022-08-03T09:19:09;5.73;;;5.40;;
795;SDS011;381;48.770;9.188;2022-08-03T09:24:14;4.57;;;4.37;;
795;SDS011;381;48.770;9.188;2022-08-03T09:29:22;5.50;;;5.10;;
795;SDS011;381;48.770;9.188;2022-08-03T09:34:25;4.70;;;4.50;;
795;SDS011;381;48.770;9.188;2022-08-03T09:39:29;4.90;;;4.70;;
795;SDS011;381;48.770;9.188;2022-08-03T09:44:38;4.57;;;4.37;;
795;SDS011;381;48.770;9.188;2022-08-03T09:49:42;5.10;;;4.80;;
795;SDS011;381;48.770;9.188;2022-08-03T09:55:01;4.13;;;4.03;;
795;SDS011;381;48.770;9.188;2022-08-03T10:00:09;4.70;;;4.40;;
795;SDS011;381;48.770;9.188;2022-08-03T10:05:13;5.33;;;4.83;;
795;SDS011;381;48.770;9.188;2022-08-03T10:10:16;4.30;;;4.10;;
795;SDS011;381;48.770;9.188;2022-08-03T10:15:19;5.33;;;4.80;;
795;SDS011;381;48.770;9.188;2022-08-03T10:20:21;4.53;;;4.33;;
795;SDS011;381;48.770;9.188;2022-08-03T10:25:25;4.73;;;4.43;;
795;SDS011;381;48.770;9.188;2022-08-03T10:30:31;3.73;;;3.60;;
795;SDS011;381;48.770;9.188;2022-08-03T10:35:34;4.60;;;4.40;;
795;SDS011;381;48.770;9.188;2022-08-03T10:40:41;4.20;;;4.00;;
795;SDS011;381;48.770;9.188;2022-08-03T10:45:44;3.93;;;3.63;;
795;SDS011;381;48.770;9.188;2022-08-03T10:50:47;4.97;;;4.77;;
795;SDS011;381;48.770;9.188;2022-08-03T10:55:52;5.03;;;4.83;;
795;SDS011;381;48.770;9.188;2022-08-03T11:01:12;5.30;;;5.10;;
795;SDS011;381;48.770;9.188;2022-08-03T11:06:14;5.17;;;4.70;;
795;SDS011;381;48.770;9.188;2022-08-03T11:11:28;4.60;;;4.40;;
795;SDS011;381;48.770;9.188;2022-08-03T11:16:31;4.07;;;3.90;;
795;SDS011;381;48.770;9.188;2022-08-03T11:21:54;5.20;;;5.00;;
795;SDS011;381;48.770;9.188;2022-08-03T11:38:02;5.20;;;5.00;;
795;SDS011;381;48.770;9.188;2022-08-03T11:43:08;5.20;;;5.00;;
795;SDS011;381;48.770;9.188;2022-08-03T11:48:15;4.50;;;4.30;;
795;SDS011;381;48.770;9.188;2022-08-03T11:53:17;5.40;;;5.10;;
795;SDS011;381;48.770;9.188;2022-08-03T11:58:21;4.93;;;4.73;;
795;SDS011;381;48.770;9.188;2022-08-03T12:03:24;6.20;;;5.30;;
795;SDS011;381;48.770;9.188;2022-08-03T12:08:32;5.20;;;5.00;;
795;SDS011;381;48.770;9.188;2022-08-03T12:13:54;5.73;;;5.53;;
795;SDS011;381;48.770;9.188;2022-08-03T12:18:57;3.90;;;3.70;;
795;SDS011;381;48.770;9.188;2022-08-03T12:24:01;6.40;;;5.90;;
795;SDS011;381;48.770;9.188;2022-08-03T12:29:07;5.33;;;5.00;;
795;SDS011;381;48.770;9.188;2022-08-03T12:34:08;5.20;;;5.00;;
795;SDS011;381;48.770;9.188;2022-08-03T12:39:14;4.80;;;3.63;;
795;SDS011;381;48.770;9.188;2022-08-03T12:44:31;5.37;;;4.97;;
795;SDS011;381;48.770;9.188;2022-08-03T12:49:56;10.30;;;3.73;;
795;SDS011;381;48.770;9.188;2022-08-03T12:55:00;3.53;;;3.33;;
795;SDS011;381;48.770;9.188;2022-08-03T13:00:10;4.23;;;4.10;;
795;SDS011;381;48.770;9.188;2022-08-03T13:05:17;5.47;;;5.27;;
795;SDS011;381;48.770;9.188;2022-08-03T13:10:26;4.47;;;4.30;;
795;SDS011;381;48.770;9.188;2022-08-03T13:15:34;4.80;;;4.60;;
795;SDS011;381;48.770;9.188;2022-08-03T13:20:36;5.00;;;4.80;;
795;SDS011;381;48.770;9.188;2022-08-03T13:25:38;5.77;;;5.43;;
795;SDS011;381;48.770;9.188;2022-08-03T13:30:42;5.40;;;5.20;;
795;SDS011;381;48.770;9.188;2022-08-03T13:35:44;5.23;;;5.03;;
795;SDS011;381;48.770;9.188;2022-08-03T13:40:48;6.07;;;5.67;;
795;SDS011;381;48.770;9.188;2022-08-03T13:45:54;5.47;;;5.17;;
795;SDS011;381;48.770;9.188;2022-08-03T13:50:56;3.90;;;3.70;;
795;SDS011;381;48.770;9.188;2022-08-03T13:55:59;4.97;;;4.77;;
795;SDS011;381;48.770;9.188;2022-08-03T14:01:02;4.20;;;3.80;;
795;SDS011;381;48.770;9.188;2022-08-03T14:06:04;5.07;;;4.87;;
795;SDS011;381;48.770;9.188;2022-08-03T14:11:06;5.53;;;5.30;;
795;SDS011;381;48.770;9.188;2022-08-03T14:16:10;5.30;;;5.00;;
795;SDS011;381;48.770;9.188;2022-08-03T14:21:12;5.63;;;5.43;;
795;SDS011;381;48.770;9.188;2022-08-03T14:26:14;5.53;;;5.23;;
795;SDS011;381;48.770;9.188;2022-08-03T14:31:19;4.67;;;4.47;;
795;SDS011;381;48.770;9.188;2022-08-03T14:36:21;5.20;;;3.20;;
795;SDS011;381;48.770;9.188;2022-08-03T14:41:23;5.40;;;5.20;;
795;SDS011;381;48.770;9.188;2022-08-03T14:46:28;4.50;;;4.30;;
795;SDS011;381;48.770;9.188;2022-08-03T14:51:33;5.23;;;4.80;;
795;SDS011;381;48.770;9.188;2022-08-03T14:56:38;5.23;;;4.93;;
795;SDS011;381;48.770;9.188;2022-08-03T15:01:42;5.43;;;5.17;;
795;SDS011;381;48.770;9.188;2022-08-03T15:06:44;5.80;;;5.50;;
795;SDS011;381;48.770;9.188;2022-08-03T15:11:46;4.57;;;4.30;;
795;SDS011;381;48.770;9.188;2022-08-03T15:16:49;5.50;;;5.00;;
795;SDS011;381;48.770;9.188;2022-08-03T15:21:51;4.90;;;4.60;;
795;SDS011;381;48.770;9.188;2022-08-03T15:26:53;5.30;;;5.00;;
795;SDS011;381;48.770;9.188;2022-08-03T15:32:00;4.90;;;4.60;;
795;SDS011;381;48.770;9.188;2022-08-03T15:37:06;5.10;;;4.70;;
795;SDS011;381;48.770;9.188;2022-08-03T15:42:08;5.20;;;4.90;;
795;SDS011;381;48.770;9.188;2022-08-03T15:47:11;5.27;;;4.60;;
795;SDS011;381;48.770;9.188;2022-08-03T15:52:13;4.40;;;4.20;;
795;SDS011;381;48.770;9.188;2022-08-03T15:57:15;5.50;;;5.30;;
795;SDS011;381;48.770;9.188;2022-08-03T16:02:19;5.13;;;4.83;;
795;SDS011;381;48.770;9.188;2022-08-03T16:07:21;4.80;;;4.60;;
795;SDS011;381;48.770;9.188;2022-08-03T16:12:37;5.13;;;4.93;;
795;SDS011;381;48.770;9.188;2022-08-03T16:17:41;4.10;;;3.97;;
795;SDS011;381;48.770;9.188;2022-08-03T16:22:44;4.80;;;4.50;;
795;SDS011;381;48.770;9.188;2022-08-03T16:27:48;4.73;;;4.53;;
795;SDS011;381;48.770;9.188;2022-08-03T16:32:51;4.03;;;3.87;;
795;SDS011;381;48.770;9.188;2022-08-03T16:37:53;4.40;;;4.20;;
795;SDS011;381;48.770;9.188;2022-08-03T16:42:55;5.40;;;5.10;;
795;SDS011;381;48.770;9.188;2022-08-03T16:47:59;5.03;;;4.83;;
795;SDS011;381;48.770;9.188;2022-08-03T16:53:02;5.10;;;4.90;;
795;SDS011;381;48.770;9.188;2022-08-03T16:58:07;3.90;;;3.70;;
795;SDS011;381;48.770;9.188;2022-08-03T17:03:11;4.23;;;4.03;;
795;SDS011;381;48.770;9.188;2022-08-03T17:08:15;3.47;;;3.30;;
795;SDS011;381;48.770;9.188;2022-08-03T17:13:18;4.40;;;4.10;;
795;SDS011;381;48.770;9.188;2022-08-03T17:18:21;3.60;;;3.50;;
795;SDS011;381;48.770;9.188;2022-08-03T17:23:29;3.67;;;3.40;;
795;SDS011;381;48.770;9.188;2022-08-03T17:28:40;3.87;;;3.67;;
795;SDS011;381;48.770;9.188;2022-08-03T17:33:47;3.40;;;3.17;;
795;SDS011;381;48.770;9.188;2022-08-03T17:38:51;3.33;;;3.23;;
795;SDS011;381;48.770;9.188;2022-08-03T17:43:54;4.83;;;4.63;;
795;SDS011;381;48.770;9.188;2022-08-03T17:48:57;3.37;;;3.27;;
795;SDS011;381;48.770;9.188;2022-08-03T17:54:03;4.30;;;4.10;;
795;SDS011;381;48.770;9.188;2022-08-03T17:59:11;4.07;;;3.87;;
795;SDS011;381;48.770;9.188;2022-08-03T18:04:19;3.30;;;3.20;;
795;SDS011;381;48.770;9.188;2022-08-03T18:09:27;3.57;;;3.27;;
795;SDS011;381;48.770;9.188;2022-08-03T18:14:34;4.60;;;4.40;;
795;SDS011;381;48.770;9.188;2022-08-03T18:19:44;4.50;;;4.20;;
795;SDS011;381;48.770;9.188;2022-08-03T18:24:47;4.40;;;4.20;;
795;SDS011;381;48.770;9.188;2022-08-03T18:29:50;4.70;;;4.30;;
795;SDS011;381;48.770;9.188;2022-08-03T18:34:56;4.20;;;4.00;;
795;SDS011;381;48.770;9.188;2022-08-03T18:39:59;4.67;;;4.40;;
795;SDS011;381;48.770;9.188;2022-08-03T18:45:02;4.93;;;4.60;;
795;SDS011;381;48.770;9.188;2022-08-03T18:50:10;4.80;;;4.60;;
795;SDS011;381;48.770;9.188;2022-08-03T18:55:16;5.63;;;5.23;;
795;SDS011;381;48.770;9.188;2022-08-03T19:00:21;5.27;;;5.00;;
795;SDS011;381;48.770;9.188;2022-08-03T19:05:25;5.93;;;5.60;;
795;SDS011;381;48.770;9.188;2022-08-03T19:10:30;6.67;;;6.07;;
795;SDS011;381;48.770;9.188;2022-08-03T19:15:34;6.80;;;6.50;;
795;SDS011;381;48.770;9.188;2022-08-03T19:20:40;11.30;;;10.40;;
795;SDS011;381;48.770;9.188;2022-08-03T19:25:43;5.50;;;5.20;;
795;SDS011;381;48.770;9.188;2022-08-03T19:30:49;5.23;;;4.87;;
795;SDS011;381;48.770;9.188;2022-08-03T19:36:00;4.87;;;4.47;;
795;SDS011;381;48.770;9.188;2022-08-03T19:41:02;5.10;;;4.90;;
795;SDS011;381;48.770;9.188;2022-08-03T19:46:06;6.27;;;5.67;;
795;SDS011;381;48.770;9.188;2022-08-03T19:51:13;5.13;;;4.87;;
795;SDS011;381;48.770;9.188;2022-08-03T19:56:16;5.20;;;5.00;;
795;SDS011;381;48.770;9.188;2022-08-03T20:01:23;5.10;;;4.60;;
795;SDS011;381;48.770;9.188;2022-08-03T20:06:35;5.10;;;4.73;;
795;SDS011;381;48.770;9.188;2022-08-03T20:11:38;4.60;;;4.40;;
795;SDS011;381;48.770;9.188;2022-08-03T20:16:41;4.67;;;4.47;;
795;SDS011;381;48.770;9.188;2022-08-03T20:21:46;4.80;;;4.50;;
795;SDS011;381;48.770;9.188;2022-08-03T20:26:50;4.70;;;4.50;;
795;SDS011;381;48.770;9.188;2022-08-03T20:31:53;5.20;;;4.80;;
795;SDS011;381;48.770;9.188;2022-08-03T20:36:57;4.67;;;4.47;;
795;SDS011;381;48.770;9.188;2022-08-03T20:41:59;4.70;;;4.40;;
795;SDS011;381;48.770;9.188;2022-08-03T20:47:02;4.17;;;3.97;;
795;SDS011;381;48.770;9.188;2022-08-03T20:52:06;4.53;;;4.33;;
795;SDS011;381;48.770;9.188;2022-08-03T20:57:11;4.60;;;4.40;;
795;SDS011;381;48.770;9.188;2022-08-03T21:02:14;4.33;;;4.13;;
795;SDS011;381;48.770;9.188;2022-08-03T21:07:18;4.53;;;4.33;;
795;SDS011;381;48.770;9.188;2022-08-03T21:12:22;4.13;;;3.83;;
795;SDS011;381;48.770;9.188;2022-08-03T21:17:31;4.20;;;4.00;;
795;SDS011;381;48.770;9.188;2022-08-03T21:22:37;3.83;;;3.73;;
795;SDS011;381;48.770;9.188;2022-08-03T21:27:42;4.77;;;4.47;;
795;SDS011;381;48.770;9.188;2022-08-03T21:32:45;4.53;;;4.33;;
795;SDS011;381;48.770;9.188;2022-08-03T21:37:50;4.57;;;4.37;;
795;SDS011;381;48.770;9.188;2022-08-03T21:43:07;4.20;;;4.00;;
795;SDS011;381;48.770;9.188;2022-08-03T21:48:09;5.03;;;4.70;;
795;SDS011;381;48.770;9.188;2022-08-03T21:53:14;4.40;;;4.00;;
795;SDS011;381;48.770;9.188;2022-08-03T21:58:17;4.10;;;3.90;;
795;SDS011;381;48.770;9.188;2022-08-03T22:03:26;4.40;;;4.20;;
795;SDS011;381;48.770;9.188;2022-08-03T22:08:31;4.40;;;4.10;;
795;SDS011;381;48.770;9.188;2022-08-03T22:13:34;4.20;;;4.00;;
795;SDS011;381;48.770;9.188;2022-08-03T22:18:36;4.20;;;4.00;;
795;SDS011;381;48.770;9.188;2022-08-03T22:23:41;4.50;;;4.20;;
795;SDS011;381;48.770;9.188;2022-08-03T22:28:46;4.47;;;4.13;;
795;SDS011;381;48.770;9.188;2022-08-03T22:33:48;4.10;;;3.87;;
795;SDS011;381;48.770;9.188;2022-08-03T22:38:53;5.27;;;5.07;;
795;SDS011;381;48.770;9.188;2022-08-03T22:43:57;4.37;;;4.07;;
795;SDS011;381;48.770;9.188;2022-08-03T22:48:59;4.70;;;4.40;;
795;SDS011;381;48.770;9.188;2022-08-03T22:54:03;4.50;;;4.20;;
795;SDS011;381;48.770;9.188;2022-08-03T22:59:05;4.23;;;3.90;;
795;SDS011;381;48.770;9.188;2022-08-03T23:04:07;5.23;;;4.40;;
795;SDS011;381;48.770;9.188;2022-08-03T23:09:12;4.50;;;4.30;;
795;SDS011;381;48.770;9.188;2022-08-03T23:14:17;4.10;;;3.90;;
795;SDS011;381;48.770;9.188;2022-08-03T23:19:19;4.43;;;4.17;;
795;SDS011;381;48.770;9.188;2022-08-03T23:24:28;7.40;;;4.57;;
795;SDS011;381;48.770;9.188;2022-08-03T23:29:34;4.20;;;4.00;;
795;SDS011;381;48.770;9.188;2022-08-03T23:34:37;4.33;;;4.13;;
795;SDS011;381;48.770;9.188;2022-08-03T23:39:59;3.90;;;3.70;;
795;SDS011;381;48.770;9.188;2022-08-03T23:45:03;4.07;;;3.90;;
795;SDS011;381;48.770;9.188;2022-08-03T23:50:06;4.13;;;3.83;;
795;SDS011;381;48.770;9.188;2022-08-03T23:55:15;4.10;;;3.83;;
